createdAt,value
2019-04-21T00:00:21.073Z,10.00
2019-04-21T00:00:54.231Z,11.20
2019-04-21T00:01:18.402Z,10.00
2019-04-21T00:01:48.772Z,10.00
2019-04-21T00:02:14.587Z,10.60
2019-04-21T00:02:39.724Z,10.20
2019-04-21T00:03:12.935Z,12.00
2019-04-21T00:03:35.597Z,9.50
2019-04-21T00:04:07.409Z,11.50
2019-04-21T00:04:33.176Z,9.25
2019-04-21T00:05:09.324Z,9.80
2019-04-21T00:05:33.465Z,10.00
2019-04-21T00:06:03.252Z,11.00
2019-04-21T00:06:32.183Z,11.20
2019-04-21T00:06:56.655Z,11.00
2019-04-21T00:07:19.264Z,9.40
2019-04-21T00:07:45.086Z,12.00
2019-04-21T00:08:19.194Z,10.40
2019-04-21T00:08:41.458Z,12.60
2019-04-21T00:09:11.178Z,11.00
2019-04-21T00:09:33.669Z,12.00
2019-04-21T00:09:58.405Z,11.80
2019-04-21T00:10:28.413Z,10.00
2019-04-21T00:11:01.117Z,11.40
2019-04-21T00:11:25.057Z,12.20
2019-04-21T00:11:47.044Z,13.00
2019-04-21T00:12:15.064Z,11.40
2019-04-21T00:12:35.874Z,10.00
2019-04-21T00:13:04.437Z,12.00
2019-04-21T00:13:28.275Z,11.40
2019-04-21T00:13:52.212Z,10.50
2019-04-21T00:14:18.381Z,13.00
2019-04-21T00:14:43.404Z,11.00
2019-04-21T00:15:10.608Z,11.20
2019-04-21T00:15:33.223Z,13.00
2019-04-21T00:15:55.028Z,13.00
2019-04-21T00:16:24.599Z,11.00
2019-04-21T00:16:52.905Z,10.80
2019-04-21T00:17:15.642Z,12.80
2019-04-21T00:17:36.935Z,12.00
2019-04-21T00:18:05.932Z,13.20
2019-04-21T00:18:41.800Z,10.25
2019-04-21T00:19:12.977Z,12.00
2019-04-21T00:19:36.654Z,12.00
2019-04-21T00:20:13.797Z,11.00
2019-04-21T00:20:39.237Z,11.50
2019-04-21T00:20:58.616Z,11.00
2019-04-21T00:21:29.247Z,13.00
2019-04-21T00:21:55.466Z,11.60
2019-04-21T00:22:26.861Z,11.60
2019-04-21T00:22:52.069Z,12.00
2019-04-21T00:23:21.443Z,11.00
2019-04-21T00:23:54.114Z,12.20
2019-04-21T00:24:23.947Z,12.20
2019-04-21T00:24:50.161Z,11.20
2019-04-21T00:25:19.111Z,13.80
2019-04-21T00:25:45.277Z,13.00
2019-04-21T00:26:07.521Z,12.60
2019-04-21T00:26:42.520Z,13.75
2019-04-21T00:27:05.545Z,14.00
2019-04-21T00:27:28.022Z,15.00
2019-04-21T00:27:58.876Z,14.00
2019-04-21T00:28:30.295Z,14.00
2019-04-21T00:28:59.576Z,14.60
2019-04-21T00:29:27.562Z,14.00
2019-04-21T00:29:45.628Z,15.00
2019-04-21T00:30:19.901Z,13.00
2019-04-21T00:30:39.869Z,13.60
2019-04-21T00:31:06.590Z,14.80
2019-04-21T00:31:28.538Z,14.60
2019-04-21T00:31:56.346Z,15.00
2019-04-21T00:32:17.854Z,14.00
2019-04-21T00:32:46.054Z,13.00
2019-04-21T00:33:06.781Z,13.40
2019-04-21T00:33:28.841Z,14.00
2019-04-21T00:33:51.977Z,14.00
2019-04-21T00:34:17.706Z,14.50
2019-04-21T00:34:51.197Z,14.00
2019-04-21T00:35:14.028Z,12.60
2019-04-21T00:35:46.498Z,13.00
2019-04-21T00:36:10.187Z,13.60
2019-04-21T00:36:40.659Z,13.00
2019-04-21T00:37:05.847Z,13.80
2019-04-21T00:37:42.522Z,12.00
2019-04-21T00:38:09.437Z,13.00
2019-04-21T00:38:43.689Z,12.50
2019-04-21T00:39:15.765Z,12.00
2019-04-21T00:39:37.075Z,12.00
2019-04-21T00:40:00.224Z,13.40
2019-04-21T00:40:24.013Z,13.00
2019-04-21T00:40:56.705Z,13.00
2019-04-21T00:41:19.355Z,13.60
2019-04-21T00:41:43.541Z,12.60
2019-04-21T00:42:09.883Z,14.00
2019-04-21T00:42:34.419Z,12.00
2019-04-21T00:43:00.898Z,14.00
2019-04-21T00:43:25.265Z,13.00
2019-04-21T00:43:52.164Z,14.00
2019-04-21T00:44:11.511Z,11.80
2019-04-21T00:44:39.982Z,13.00
2019-04-21T00:45:09.810Z,12.50
2019-04-21T00:45:37.607Z,12.00
2019-04-21T00:45:57.564Z,11.40
2019-04-21T00:46:31.158Z,14.00
2019-04-21T00:46:55.787Z,15.00
2019-04-21T00:47:31.726Z,12.00
2019-04-21T00:47:53.129Z,13.00
2019-04-21T00:48:25.787Z,14.20
2019-04-21T00:48:47.624Z,13.00
2019-04-21T00:49:08.543Z,13.00
2019-04-21T00:49:34.368Z,14.75
2019-04-21T00:50:08.123Z,14.40
2019-04-21T00:50:40.738Z,11.80
2019-04-21T00:51:23.078Z,13.00
2019-04-21T00:51:43.633Z,13.00
2019-04-21T00:52:02.215Z,14.00
2019-04-21T00:52:39.915Z,15.00
2019-04-21T00:53:33.820Z,15.00
2019-04-21T00:53:58.535Z,14.60
2019-04-21T00:54:37.381Z,13.25
2019-04-21T00:54:59.751Z,12.75
2019-04-21T00:55:59.020Z,12.00
2019-04-21T00:56:21.788Z,14.60
2019-04-21T00:56:50.026Z,14.00
2019-04-21T00:57:17.499Z,12.00
2019-04-21T00:57:45.326Z,15.50
2019-04-21T00:58:11.538Z,15.00
2019-04-21T00:58:33.160Z,13.80
2019-04-21T00:59:01.124Z,13.00
2019-04-21T00:59:25.600Z,13.40
2019-04-21T00:59:57.150Z,14.40
2019-04-21T01:00:18.744Z,15.00
2019-04-21T01:00:46.396Z,15.60
2019-04-21T01:01:09.050Z,13.00
2019-04-21T01:01:38.028Z,15.40
2019-04-21T01:01:59.705Z,13.00
2019-04-21T01:02:36.380Z,16.00
2019-04-21T01:03:14.673Z,15.00
2019-04-21T01:03:26.758Z,13.00
2019-04-21T01:03:53.348Z,12.40
2019-04-21T01:04:15.371Z,14.75
2019-04-21T01:04:44.776Z,16.00
2019-04-21T01:05:11.141Z,14.60
2019-04-21T01:05:41.109Z,15.50
2019-04-21T01:06:03.316Z,14.80
2019-04-21T01:06:34.107Z,14.00
2019-04-21T01:07:00.677Z,15.50
2019-04-21T01:07:19.407Z,15.20
2019-04-21T01:07:45.465Z,15.60
2019-04-21T01:08:13.162Z,14.40
2019-04-21T01:08:41.356Z,14.75
2019-04-21T01:09:06.360Z,15.00
2019-04-21T01:09:27.643Z,13.00
2019-04-21T01:09:54.060Z,14.00
2019-04-21T01:10:23.306Z,14.00
2019-04-21T01:10:49.273Z,14.00
2019-04-21T01:11:17.958Z,13.60
2019-04-21T01:11:51.463Z,14.00
2019-04-21T01:12:17.143Z,13.00
2019-04-21T01:12:41.763Z,13.00
2019-04-21T01:13:13.985Z,14.60
2019-04-21T01:13:39.518Z,13.00
2019-04-21T01:14:00.652Z,14.60
2019-04-21T01:14:29.747Z,16.60
2019-04-21T01:14:55.346Z,14.60
2019-04-21T01:15:26.425Z,12.20
2019-04-21T01:15:51.480Z,16.00
2019-04-21T01:16:18.742Z,16.00
2019-04-21T01:16:39.821Z,15.00
2019-04-21T01:17:07.136Z,13.00
2019-04-21T01:17:27.742Z,15.20
2019-04-21T01:17:56.066Z,15.60
2019-04-21T01:18:20.649Z,15.40
2019-04-21T01:18:50.523Z,15.00
2019-04-21T01:19:14.444Z,16.60
2019-04-21T01:19:37.090Z,15.00
2019-04-21T01:20:01.205Z,17.00
2019-04-21T01:20:17.747Z,16.60
2019-04-21T01:20:39.732Z,15.00
2019-04-21T01:21:13.618Z,15.00
2019-04-21T01:21:30.770Z,15.00
2019-04-21T01:21:56.203Z,18.00
2019-04-21T01:22:20.880Z,18.00
2019-04-21T01:22:45.600Z,15.20
2019-04-21T01:23:10.568Z,16.00
2019-04-21T01:23:35.849Z,17.00
2019-04-21T01:24:07.737Z,17.00
2019-04-21T01:24:33.169Z,15.00
2019-04-21T01:25:00.067Z,17.00
2019-04-21T01:25:28.105Z,16.00
2019-04-21T01:26:02.649Z,14.00
2019-04-21T01:26:25.354Z,16.20
2019-04-21T01:26:48.257Z,18.00
2019-04-21T01:27:16.240Z,15.20
2019-04-21T01:27:52.094Z,16.00
2019-04-21T01:28:14.851Z,15.40
2019-04-21T01:28:40.057Z,16.00
2019-04-21T01:29:10.413Z,15.80
2019-04-21T01:29:41.395Z,15.20
2019-04-21T01:30:05.673Z,15.60
2019-04-21T01:30:31.238Z,16.00
2019-04-21T01:30:57.350Z,18.00
2019-04-21T01:31:17.138Z,15.20
2019-04-21T01:31:48.444Z,15.40
2019-04-21T01:32:19.429Z,15.00
2019-04-21T01:32:42.696Z,16.00
2019-04-21T01:33:15.157Z,15.00
2019-04-21T01:33:42.927Z,15.60
2019-04-21T01:34:02.906Z,16.00
2019-04-21T01:34:28.844Z,17.00
2019-04-21T01:34:53.262Z,15.25
2019-04-21T01:35:21.156Z,17.00
2019-04-21T01:35:50.527Z,16.00
2019-04-21T01:36:08.218Z,16.50
2019-04-21T01:36:38.627Z,18.00
2019-04-21T01:37:04.626Z,17.80
2019-04-21T01:37:40.820Z,18.00
2019-04-21T01:38:02.968Z,18.00
2019-04-21T01:38:31.616Z,18.00
2019-04-21T01:38:59.162Z,17.40
2019-04-21T01:39:19.610Z,16.00
2019-04-21T01:39:51.408Z,16.60
2019-04-21T01:40:18.002Z,15.40
2019-04-21T01:40:42.618Z,18.00
2019-04-21T01:41:10.015Z,15.00
2019-04-21T01:41:31.737Z,15.00
2019-04-21T01:41:57.271Z,16.60
2019-04-21T01:42:28.534Z,16.40
2019-04-21T01:43:17.598Z,16.00
2019-04-21T01:43:39.482Z,17.00
2019-04-21T01:44:06.202Z,17.60
2019-04-21T01:44:38.756Z,16.00
2019-04-21T01:44:58.268Z,17.00
2019-04-21T01:45:30.690Z,17.80
2019-04-21T01:45:49.161Z,17.50
2019-04-21T01:46:15.352Z,17.40
2019-04-21T01:46:39.277Z,17.00
2019-04-21T01:47:06.051Z,16.60
2019-04-21T01:47:44.695Z,17.00
2019-04-21T01:48:06.236Z,18.00
2019-04-21T01:48:36.064Z,17.00
2019-04-21T01:48:57.045Z,17.00
2019-04-21T01:49:21.900Z,19.00
2019-04-21T01:49:49.152Z,17.00
2019-04-21T01:50:20.080Z,17.00
2019-04-21T01:50:48.321Z,17.00
2019-04-21T01:51:17.130Z,17.40
2019-04-21T01:52:00.950Z,16.50
2019-04-21T01:52:51.485Z,18.00
2019-04-21T01:53:19.757Z,18.00
2019-04-21T01:53:44.806Z,18.00
2019-04-21T01:54:28.525Z,18.00
2019-04-21T01:54:55.241Z,17.75
2019-04-21T01:55:24.943Z,17.00
2019-04-21T01:55:48.195Z,18.00
2019-04-21T01:56:35.664Z,18.00
2019-04-21T01:57:03.392Z,18.00
2019-04-21T01:57:33.334Z,18.00
2019-04-21T01:58:03.294Z,18.00
2019-04-21T01:58:25.473Z,18.00
2019-04-21T01:58:49.177Z,18.00
2019-04-21T01:59:18.473Z,18.00
2019-04-21T01:59:45.710Z,17.60
2019-04-21T02:00:13.341Z,18.00
2019-04-21T02:00:51.834Z,17.00
2019-04-21T02:01:24.626Z,18.40
2019-04-21T02:01:55.371Z,18.25
2019-04-21T02:02:18.390Z,18.00
2019-04-21T02:02:43.373Z,18.00
2019-04-21T02:03:22.646Z,19.00
2019-04-21T02:03:59.911Z,18.00
2019-04-21T02:04:36.624Z,18.00
2019-04-21T02:05:07.056Z,18.20
2019-04-21T02:05:26.515Z,18.00
2019-04-21T02:05:51.111Z,17.00
2019-04-21T02:06:19.491Z,17.00
2019-04-21T02:06:39.211Z,18.00
2019-04-21T02:07:11.536Z,17.40
2019-04-21T02:07:35.866Z,17.00
2019-04-21T02:08:01.172Z,18.00
2019-04-21T02:08:28.795Z,18.80
2019-04-21T02:08:51.431Z,19.00
2019-04-21T02:09:22.939Z,19.00
2019-04-21T02:09:43.214Z,19.00
2019-04-21T02:10:17.731Z,18.00
2019-04-21T02:10:47.988Z,17.40
2019-04-21T02:11:15.651Z,18.60
2019-04-21T02:11:40.919Z,18.00
2019-04-21T02:12:05.745Z,18.00
2019-04-21T02:12:25.291Z,18.60
2019-04-21T02:12:51.063Z,18.00
2019-04-21T02:13:12.096Z,18.00
2019-04-21T02:13:53.342Z,18.00
2019-04-21T02:14:11.590Z,19.00
2019-04-21T02:14:41.217Z,19.00
2019-04-21T02:15:09.530Z,18.60
2019-04-21T02:15:39.072Z,16.00
2019-04-21T02:16:01.043Z,17.00
2019-04-21T02:16:23.418Z,18.00
2019-04-21T02:16:48.222Z,17.00
2019-04-21T02:17:16.253Z,18.00
2019-04-21T02:17:40.758Z,18.00
2019-04-21T02:18:08.976Z,17.40
2019-04-21T02:18:35.250Z,17.60
2019-04-21T02:18:58.115Z,17.00
2019-04-21T02:19:27.885Z,17.00
2019-04-21T02:19:51.747Z,16.60
2019-04-21T02:20:12.240Z,17.00
2019-04-21T02:20:38.738Z,17.75
2019-04-21T02:21:00.158Z,17.40
2019-04-21T02:21:36.924Z,18.00
2019-04-21T02:22:01.856Z,17.60
2019-04-21T02:22:55.477Z,18.00
2019-04-21T02:23:12.883Z,18.00
2019-04-21T02:23:34.963Z,17.80
2019-04-21T02:23:54.038Z,17.40
2019-04-21T02:24:22.345Z,18.00
2019-04-21T02:24:53.384Z,18.00
2019-04-21T02:25:13.996Z,18.00
2019-04-21T02:25:38.455Z,19.00
2019-04-21T02:26:03.768Z,18.00
2019-04-21T02:26:36.166Z,18.00
2019-04-21T02:26:59.472Z,19.00
2019-04-21T02:27:26.428Z,17.40
2019-04-21T02:27:54.577Z,18.00
2019-04-21T02:28:19.340Z,18.20
2019-04-21T02:28:52.592Z,18.00
2019-04-21T02:29:29.136Z,17.40
2019-04-21T02:29:45.223Z,18.00
2019-04-21T02:30:12.154Z,17.40
2019-04-21T02:30:52.087Z,15.80
2019-04-21T02:31:04.969Z,17.40
2019-04-21T02:31:39.384Z,18.00
2019-04-21T02:32:07.806Z,18.00
2019-04-21T02:33:02.371Z,18.00
2019-04-21T02:33:30.148Z,18.00
2019-04-21T02:33:50.304Z,18.00
2019-04-21T02:34:04.499Z,19.00
2019-04-21T02:35:40.589Z,19.00
2019-04-21T02:36:00.537Z,18.40
2019-04-21T02:36:37.347Z,17.50
2019-04-21T02:37:44.574Z,16.20
2019-04-21T02:38:11.148Z,18.00
2019-04-21T02:38:36.294Z,17.60
2019-04-21T02:39:57.324Z,19.00
2019-04-21T02:40:48.052Z,19.00
2019-04-21T02:41:06.060Z,18.00
2019-04-21T02:41:43.423Z,18.60
2019-04-21T02:42:03.405Z,18.40
2019-04-21T02:43:34.302Z,18.00
2019-04-21T02:43:56.364Z,18.50
2019-04-21T02:44:17.842Z,17.75
2019-04-21T02:45:09.438Z,17.40
2019-04-21T02:46:04.253Z,19.00
2019-04-21T02:46:48.520Z,18.75
2019-04-21T02:47:31.294Z,18.00
2019-04-21T02:48:43.467Z,17.80
2019-04-21T02:49:19.384Z,18.00
2019-04-21T02:49:45.161Z,19.00
2019-04-21T02:50:19.193Z,18.00
2019-04-21T02:50:28.788Z,18.00
2019-04-21T02:50:45.181Z,19.00
2019-04-21T02:51:19.611Z,18.00
2019-04-21T02:51:58.562Z,18.00
2019-04-21T02:52:52.364Z,19.25
2019-04-21T02:53:16.446Z,18.80
2019-04-21T02:53:47.784Z,19.00
2019-04-21T02:55:17.879Z,18.00
2019-04-21T02:56:19.186Z,19.00
2019-04-21T02:57:08.633Z,17.00
2019-04-21T02:57:39.598Z,19.00
2019-04-21T02:59:06.692Z,19.00
2019-04-21T02:59:33.418Z,18.00
2019-04-21T03:00:18.654Z,17.80
2019-04-21T03:00:29.922Z,18.00
2019-04-21T03:01:12.762Z,18.00
2019-04-21T03:01:46.142Z,18.00
2019-04-21T03:03:32.019Z,18.00
2019-04-21T03:04:26.227Z,18.00
2019-04-21T03:05:01.874Z,18.75
2019-04-21T03:06:06.162Z,19.00
2019-04-21T03:06:54.226Z,18.80
2019-04-21T03:07:19.250Z,18.00
2019-04-21T03:07:55.361Z,19.00
2019-04-21T03:08:50.484Z,18.00
2019-04-21T03:09:17.803Z,18.40
2019-04-21T03:09:43.222Z,19.00
2019-04-21T03:10:36.109Z,19.00
2019-04-21T03:10:59.300Z,18.00
2019-04-21T03:11:19.516Z,18.00
2019-04-21T03:11:56.482Z,18.00
2019-04-21T03:12:47.995Z,20.00
2019-04-21T03:13:14.066Z,20.00
2019-04-21T03:13:42.993Z,18.00
2019-04-21T03:14:28.298Z,18.25
2019-04-21T03:15:29.556Z,19.75
2019-04-21T03:17:03.414Z,20.00
2019-04-21T03:18:06.524Z,20.00
2019-04-21T03:18:36.383Z,20.00
2019-04-21T03:18:56.564Z,20.00
2019-04-21T03:19:30.028Z,19.40
2019-04-21T03:19:50.462Z,18.00
2019-04-21T03:20:17.411Z,20.00
2019-04-21T03:21:00.117Z,19.00
2019-04-21T03:21:07.542Z,18.40
2019-04-21T03:21:28.983Z,19.80
2019-04-21T03:22:05.301Z,18.00
2019-04-21T03:22:24.311Z,20.00
2019-04-21T03:22:57.349Z,20.00
2019-04-21T03:24:29.470Z,19.20
2019-04-21T03:26:05.192Z,19.00
2019-04-21T03:26:29.033Z,20.00
2019-04-21T03:27:03.631Z,20.00
2019-04-21T03:27:50.907Z,20.00
2019-04-21T03:28:13.571Z,20.00
2019-04-21T03:28:39.736Z,21.00
2019-04-21T03:29:03.706Z,20.00
2019-04-21T03:32:05.758Z,20.00
2019-04-21T03:32:50.647Z,20.00
2019-04-21T03:34:02.460Z,20.00
2019-04-21T03:35:03.825Z,20.00
2019-04-21T03:35:33.786Z,20.00
2019-04-21T03:36:33.302Z,20.00
2019-04-21T03:36:47.821Z,20.00
2019-04-21T03:37:16.758Z,20.00
2019-04-21T03:38:03.909Z,19.50
2019-04-21T03:38:18.963Z,20.00
2019-04-21T03:39:01.275Z,18.20
2019-04-21T03:39:46.902Z,20.00
2019-04-21T03:40:14.945Z,19.20
2019-04-21T03:40:28.626Z,19.60
2019-04-21T03:40:57.235Z,20.00
2019-04-21T03:41:26.856Z,19.00
2019-04-21T03:43:16.689Z,18.40
2019-04-21T03:43:36.447Z,20.00
2019-04-21T03:43:59.267Z,20.00
2019-04-21T03:45:42.426Z,20.00
2019-04-21T03:46:15.958Z,20.00
2019-04-21T03:46:41.265Z,20.00
2019-04-21T03:47:11.128Z,20.00
2019-04-21T03:47:30.805Z,18.00
2019-04-21T03:48:27.216Z,20.00
2019-04-21T03:49:28.930Z,20.00
2019-04-21T03:49:58.185Z,20.00
2019-04-21T03:50:11.383Z,20.00
2019-04-21T03:50:33.678Z,19.20
2019-04-21T03:51:09.434Z,19.20
2019-04-21T03:51:35.942Z,20.00
2019-04-21T03:52:03.237Z,20.00
2019-04-21T03:52:56.822Z,20.00
2019-04-21T03:53:18.493Z,18.20
2019-04-21T03:53:40.340Z,18.00
2019-04-21T03:54:09.293Z,20.00
2019-04-21T03:54:42.009Z,19.00
2019-04-21T03:55:48.717Z,19.25
2019-04-21T03:56:27.249Z,20.00
2019-04-21T03:57:21.671Z,20.00
2019-04-21T03:57:57.404Z,20.00
2019-04-21T03:58:46.711Z,20.00
2019-04-21T03:59:16.146Z,20.00
2019-04-21T03:59:55.968Z,19.80
2019-04-21T04:01:41.233Z,20.00
2019-04-21T04:02:22.981Z,20.00
2019-04-21T04:03:00.021Z,20.00
2019-04-21T04:03:52.177Z,20.00
2019-04-21T04:04:22.398Z,20.00
2019-04-21T04:05:00.529Z,19.40
2019-04-21T04:05:35.959Z,20.00
2019-04-21T04:05:55.580Z,20.00
2019-04-21T04:06:57.008Z,20.00
2019-04-21T04:07:31.146Z,20.00
2019-04-21T04:07:59.337Z,20.00
2019-04-21T04:09:09.506Z,20.00
2019-04-21T04:10:02.934Z,20.00
2019-04-21T04:10:28.914Z,20.00
2019-04-21T04:11:12.756Z,20.00
2019-04-21T04:11:33.670Z,20.00
2019-04-21T04:11:47.392Z,20.00
2019-04-21T04:12:05.259Z,20.00
2019-04-21T04:12:35.072Z,20.00
2019-04-21T04:13:07.305Z,20.00
2019-04-21T04:13:44.212Z,20.80
2019-04-21T04:14:23.224Z,20.00
2019-04-21T04:15:26.655Z,19.60
2019-04-21T04:16:02.079Z,20.00
2019-04-21T04:16:10.146Z,20.00
2019-04-21T04:17:27.032Z,20.00
2019-04-21T04:17:54.322Z,20.00
2019-04-21T04:18:31.952Z,20.40
2019-04-21T04:19:18.549Z,20.00
2019-04-21T04:19:41.932Z,20.00
2019-04-21T04:20:03.923Z,21.00
2019-04-21T04:20:43.766Z,20.80
2019-04-21T04:21:03.454Z,21.00
2019-04-21T04:21:28.791Z,21.00
2019-04-21T04:21:59.104Z,21.00
2019-04-21T04:22:20.201Z,20.00
2019-04-21T04:22:49.681Z,21.00
2019-04-21T04:23:10.369Z,20.00
2019-04-21T04:23:45.067Z,21.00
2019-04-21T04:24:08.982Z,21.00
2019-04-21T04:24:46.807Z,21.00
2019-04-21T04:25:05.187Z,21.00
2019-04-21T04:25:37.431Z,21.00
2019-04-21T04:25:53.566Z,21.00
2019-04-21T04:26:26.259Z,21.00
2019-04-21T04:27:20.908Z,21.80
2019-04-21T04:28:43.811Z,21.00
2019-04-21T04:29:01.321Z,21.00
2019-04-21T04:29:19.948Z,21.00
2019-04-21T04:30:10.380Z,21.00
2019-04-21T04:30:49.755Z,21.00
2019-04-21T04:32:20.098Z,20.75
2019-04-21T04:32:28.578Z,20.00
2019-04-21T04:32:53.781Z,21.00
2019-04-21T04:33:34.398Z,20.00
2019-04-21T04:34:00.326Z,21.00
2019-04-21T04:34:14.646Z,21.00
2019-04-21T04:35:35.356Z,20.00
2019-04-21T04:36:37.319Z,20.60
2019-04-21T04:37:46.974Z,21.00
2019-04-21T04:38:12.986Z,21.00
2019-04-21T04:38:46.853Z,20.25
2019-04-21T04:39:25.795Z,20.25
2019-04-21T04:41:15.916Z,21.00
2019-04-21T04:42:00.288Z,20.80
2019-04-21T04:42:31.457Z,21.00
2019-04-21T04:42:56.201Z,20.80
2019-04-21T04:43:50.177Z,20.00
2019-04-21T04:44:26.498Z,21.00
2019-04-21T04:44:57.098Z,21.00
2019-04-21T04:45:15.078Z,20.50
2019-04-21T04:45:56.482Z,21.00
2019-04-21T04:46:41.582Z,20.40
2019-04-21T04:46:55.771Z,18.67
2019-04-21T04:47:18.410Z,21.00
2019-04-21T04:47:47.742Z,21.00
2019-04-21T04:48:39.340Z,20.75
2019-04-21T04:49:11.464Z,21.00
2019-04-21T04:49:53.402Z,21.00
2019-04-21T04:50:19.776Z,21.00
2019-04-21T04:51:24.785Z,21.00
2019-04-21T04:52:09.644Z,20.20
2019-04-21T04:52:19.225Z,21.00
2019-04-21T04:52:56.858Z,21.00
2019-04-21T04:53:38.808Z,20.80
2019-04-21T04:53:48.845Z,21.00
2019-04-21T04:54:32.003Z,20.60
2019-04-21T04:54:55.731Z,20.40
2019-04-21T04:55:06.924Z,21.00
2019-04-21T04:55:43.382Z,21.00
2019-04-21T04:56:06.002Z,21.00
2019-04-21T04:56:30.680Z,21.25
2019-04-21T04:57:49.081Z,21.00
2019-04-21T04:57:59.298Z,21.00
2019-04-21T04:58:18.239Z,21.40
2019-04-21T04:59:10.642Z,20.40
2019-04-21T04:59:33.672Z,20.60
2019-04-21T05:00:25.856Z,21.00
2019-04-21T05:00:34.889Z,21.00
2019-04-21T05:00:58.155Z,21.00
2019-04-21T05:01:36.750Z,20.60
2019-04-21T05:02:00.366Z,21.00
2019-04-21T05:03:01.349Z,20.80
2019-04-21T05:03:47.245Z,20.20
2019-04-21T05:04:20.522Z,21.00
2019-04-21T05:04:39.669Z,20.60
2019-04-21T05:05:09.149Z,21.00
2019-04-21T05:07:39.968Z,21.00
2019-04-21T05:08:31.617Z,20.60
2019-04-21T05:08:52.955Z,20.50
2019-04-21T05:09:18.645Z,21.00
2019-04-21T05:09:37.070Z,21.00
2019-04-21T05:09:52.496Z,20.60
2019-04-21T05:10:30.535Z,21.00
2019-04-21T05:11:00.570Z,20.60
2019-04-21T05:11:24.068Z,23.40
2019-04-21T05:12:15.844Z,24.00
2019-04-21T05:12:32.502Z,24.00
2019-04-21T05:13:02.257Z,25.00
2019-04-21T05:13:27.979Z,25.00
2019-04-21T05:13:55.856Z,27.00
2019-04-21T05:14:13.375Z,27.00
2019-04-21T05:14:48.222Z,30.00
2019-04-21T05:15:11.517Z,29.00
2019-04-21T05:15:34.185Z,29.60
2019-04-21T05:16:13.758Z,29.00
2019-04-21T05:16:55.160Z,30.00
2019-04-21T05:17:30.960Z,30.80
2019-04-21T05:18:13.659Z,31.00
2019-04-21T05:18:45.179Z,31.00
2019-04-21T05:19:42.298Z,31.20
2019-04-21T05:20:08.648Z,31.00
2019-04-21T05:20:41.782Z,31.00
2019-04-21T05:21:04.343Z,31.00
2019-04-21T05:21:30.261Z,31.75
2019-04-21T05:21:45.422Z,31.00
2019-04-21T05:22:17.305Z,33.40
2019-04-21T05:22:35.300Z,31.00
2019-04-21T05:23:03.397Z,31.00
2019-04-21T05:23:24.663Z,32.00
2019-04-21T05:23:51.068Z,33.25
2019-04-21T05:24:17.852Z,31.80
2019-04-21T05:24:37.941Z,33.00
2019-04-21T05:25:05.213Z,32.00
2019-04-21T05:25:35.259Z,33.00
2019-04-21T05:25:53.375Z,34.00
2019-04-21T05:26:23.105Z,35.00
2019-04-21T05:26:53.593Z,36.40
2019-04-21T05:27:38.325Z,36.25
2019-04-21T05:28:01.054Z,33.60
2019-04-21T05:28:31.725Z,35.00
2019-04-21T05:28:50.830Z,35.20
2019-04-21T05:29:19.394Z,35.00
2019-04-21T05:30:01.892Z,34.00
2019-04-21T05:30:30.812Z,35.60
2019-04-21T05:30:58.379Z,36.00
2019-04-21T05:31:20.871Z,34.00
2019-04-21T05:31:51.039Z,35.00
2019-04-21T05:32:17.201Z,36.80
2019-04-21T05:33:00.078Z,34.00
2019-04-21T05:33:29.254Z,37.00
2019-04-21T05:34:04.730Z,39.60
2019-04-21T05:34:43.042Z,39.00
2019-04-21T05:35:01.930Z,37.40
2019-04-21T05:35:47.392Z,41.00
2019-04-21T05:36:30.861Z,36.60
2019-04-21T05:36:57.837Z,38.00
2019-04-21T05:37:25.622Z,38.00
2019-04-21T05:37:50.375Z,34.75
2019-04-21T05:38:21.435Z,39.00
2019-04-21T05:38:53.476Z,38.00
2019-04-21T05:39:18.530Z,39.00
2019-04-21T05:39:52.295Z,38.00
2019-04-21T05:40:18.323Z,41.00
2019-04-21T05:40:44.123Z,37.00
2019-04-21T05:41:10.060Z,44.60
2019-04-21T05:41:42.882Z,41.00
2019-04-21T05:42:08.887Z,45.00
2019-04-21T05:42:44.138Z,41.00
2019-04-21T05:43:08.192Z,40.40
2019-04-21T05:43:40.421Z,40.20
2019-04-21T05:44:06.294Z,40.60
2019-04-21T05:44:41.936Z,43.60
2019-04-21T05:45:07.998Z,41.00
2019-04-21T05:45:34.809Z,40.60
2019-04-21T05:45:59.682Z,41.00
2019-04-21T05:46:21.353Z,46.40
2019-04-21T05:46:49.653Z,40.20
2019-04-21T05:47:22.073Z,41.75
2019-04-21T05:47:46.317Z,43.00
2019-04-21T05:48:17.819Z,43.25
2019-04-21T05:48:39.758Z,41.20
2019-04-21T05:49:10.764Z,44.50
2019-04-21T05:49:41.485Z,40.60
2019-04-21T05:50:06.501Z,43.25
2019-04-21T05:50:35.040Z,40.50
2019-04-21T05:51:02.057Z,36.00
2019-04-21T05:51:28.727Z,37.00
2019-04-21T05:51:55.751Z,37.20
2019-04-21T05:52:23.216Z,39.60
2019-04-21T05:52:46.203Z,41.00
2019-04-21T05:53:26.837Z,41.20
2019-04-21T05:53:48.258Z,39.00
2019-04-21T05:54:24.634Z,43.00
2019-04-21T05:54:46.518Z,39.00
2019-04-21T05:55:14.538Z,37.00
2019-04-21T05:55:35.948Z,40.20
2019-04-21T05:56:05.010Z,39.00
2019-04-21T05:56:31.855Z,40.40
2019-04-21T05:56:48.877Z,42.50
2019-04-21T05:57:17.213Z,40.00
2019-04-21T05:57:48.162Z,41.25
2019-04-21T05:58:08.593Z,43.50
2019-04-21T05:58:40.956Z,41.25
2019-04-21T05:59:02.111Z,43.60
2019-04-21T05:59:32.342Z,40.50
2019-04-21T05:59:53.713Z,39.00
2019-04-21T06:00:23.073Z,41.00
2019-04-21T06:01:15.146Z,42.00
2019-04-21T06:01:31.421Z,40.50
2019-04-21T06:01:50.292Z,43.00
2019-04-21T06:02:28.881Z,42.80
2019-04-21T06:02:56.036Z,44.50
2019-04-21T06:03:44.504Z,43.20
2019-04-21T06:04:03.673Z,43.20
2019-04-21T06:04:52.330Z,44.80
2019-04-21T06:05:09.346Z,44.80
2019-04-21T06:05:39.151Z,40.40
2019-04-21T06:06:13.750Z,42.75
2019-04-21T06:06:45.950Z,42.60
2019-04-21T06:07:15.347Z,40.60
2019-04-21T06:07:33.428Z,39.17
2019-04-21T06:08:03.135Z,45.00
2019-04-21T06:08:39.013Z,43.20
2019-04-21T06:08:52.607Z,43.20
2019-04-21T06:09:32.504Z,41.75
2019-04-21T06:10:12.285Z,42.00
2019-04-21T06:10:48.769Z,41.00
2019-04-21T06:11:10.349Z,40.80
2019-04-21T06:11:30.937Z,43.25
2019-04-21T06:12:04.745Z,41.40
2019-04-21T06:12:29.775Z,44.00
2019-04-21T06:12:59.654Z,41.25
2019-04-21T06:13:28.163Z,40.60
2019-04-21T06:14:14.013Z,41.60
2019-04-21T06:14:46.819Z,40.20
2019-04-21T06:15:10.118Z,41.60
2019-04-21T06:15:36.057Z,42.20
2019-04-21T06:16:40.341Z,41.60
2019-04-21T06:16:55.641Z,39.00
2019-04-21T06:17:23.649Z,42.40
2019-04-21T06:17:52.449Z,40.25
2019-04-21T06:18:11.682Z,39.40
2019-04-21T06:18:44.852Z,42.00
2019-04-21T06:19:22.580Z,41.00
2019-04-21T06:19:41.403Z,40.00
2019-04-21T06:20:21.158Z,40.60
2019-04-21T06:20:54.322Z,39.00
2019-04-21T06:21:17.453Z,40.40
2019-04-21T06:21:38.807Z,42.75
2019-04-21T06:22:11.971Z,39.00
2019-04-21T06:22:28.899Z,39.20
2019-04-21T06:23:07.227Z,44.75
2019-04-21T06:23:30.270Z,40.40
2019-04-21T06:23:51.460Z,39.00
2019-04-21T06:24:21.857Z,40.60
2019-04-21T06:25:15.251Z,40.00
2019-04-21T06:25:41.554Z,38.00
2019-04-21T06:25:48.675Z,41.00
2019-04-21T06:26:25.608Z,40.00
2019-04-21T06:26:50.499Z,39.20
2019-04-21T06:27:37.930Z,41.20
2019-04-21T06:27:52.645Z,43.00
2019-04-21T06:28:19.182Z,41.40
2019-04-21T06:28:46.650Z,40.60
2019-04-21T06:29:08.670Z,39.20
2019-04-21T06:29:36.171Z,39.00
2019-04-21T06:30:06.030Z,42.50
2019-04-21T06:30:33.193Z,40.40
2019-04-21T06:31:08.178Z,43.00
2019-04-21T06:31:33.943Z,40.80
2019-04-21T06:32:12.720Z,39.75
2019-04-21T06:32:59.442Z,39.60
2019-04-21T06:34:04.712Z,41.40
2019-04-21T06:34:41.114Z,39.60
2019-04-21T06:35:40.016Z,37.20
2019-04-21T06:36:23.981Z,40.40
2019-04-21T06:36:42.635Z,40.50
2019-04-21T06:37:32.645Z,37.20
2019-04-21T06:37:56.448Z,38.00
2019-04-21T06:38:53.875Z,39.75
2019-04-21T06:39:57.708Z,38.00
2019-04-21T06:40:15.684Z,41.00
2019-04-21T06:40:35.824Z,36.60
2019-04-21T06:40:55.988Z,37.80
2019-04-21T06:41:49.050Z,38.33
2019-04-21T06:42:13.555Z,37.40
2019-04-21T06:42:53.902Z,38.00
2019-04-21T06:43:18.428Z,37.00
2019-04-21T06:43:44.807Z,37.25
2019-04-21T06:44:09.559Z,37.80
2019-04-21T06:44:54.176Z,37.40
2019-04-21T06:45:32.138Z,37.25
2019-04-21T06:45:55.796Z,37.40
2019-04-21T06:46:24.244Z,37.50
2019-04-21T06:46:48.992Z,36.40
2019-04-21T06:47:06.268Z,34.00
2019-04-21T06:47:46.795Z,36.20
2019-04-21T06:48:04.690Z,36.00
2019-04-21T06:48:38.600Z,34.80
2019-04-21T06:48:56.571Z,36.00
2019-04-21T06:49:15.974Z,35.60